createdAt,value
2023-03-04T00:00:35.708Z,25.48
2023-03-04T00:03:03.613Z,23.03
2023-03-04T00:05:31.712Z,24.38
2023-03-04T00:07:59.597Z,18.92
2023-03-04T00:10:27.612Z,22.20
2023-03-04T00:12:55.530Z,22.10
2023-03-04T00:15:23.369Z,24.38
2023-03-04T00:17:53.834Z,13.32
2023-03-04T00:20:21.643Z,18.05
2023-03-04T00:22:49.564Z,17.85
2023-03-04T00:25:17.734Z,20.00
2023-03-04T00:27:45.687Z,19.98
2023-03-04T00:30:13.954Z,15.18
2023-03-04T00:32:43.669Z,15.20
2023-03-04T00:35:13.065Z,17.30
2023-03-04T00:37:41.034Z,17.67
2023-03-04T00:40:10.645Z,20.75
2023-03-04T00:42:38.584Z,16.70
2023-03-04T00:45:07.677Z,18.27
2023-03-04T00:47:35.567Z,12.93
2023-03-04T00:50:03.648Z,18.13
2023-03-04T00:52:33.253Z,14.45
2023-03-04T00:55:01.283Z,16.02
2023-03-04T00:57:29.659Z,13.32
2023-03-04T00:59:57.454Z,21.95
2023-03-04T01:02:25.474Z,16.98
2023-03-04T01:04:54.317Z,15.55
2023-03-04T01:07:23.007Z,18.30
2023-03-04T01:09:52.454Z,22.73
2023-03-04T01:12:20.497Z,12.40
2023-03-04T01:14:48.355Z,20.50
2023-03-04T01:17:16.280Z,23.55
2023-03-04T01:19:44.493Z,15.93
2023-03-04T01:22:13.695Z,18.15
2023-03-04T01:24:42.342Z,18.77
2023-03-04T01:27:11.632Z,19.25
2023-03-04T01:29:39.544Z,18.83
2023-03-04T01:32:07.522Z,19.20
2023-03-04T01:34:36.228Z,14.88
2023-03-04T01:37:05.425Z,20.98
2023-03-04T01:39:33.233Z,15.23
2023-03-04T01:42:01.269Z,17.73
2023-03-04T01:44:30.579Z,18.40
2023-03-04T01:46:58.609Z,15.53
2023-03-04T01:49:26.665Z,18.70
2023-03-04T01:51:55.826Z,20.52
2023-03-04T01:54:23.962Z,17.45
2023-03-04T01:56:53.707Z,19.48
2023-03-04T01:59:23.437Z,13.75
2023-03-04T02:01:56.072Z,17.00
2023-03-04T02:04:27.303Z,14.55
2023-03-04T02:06:56.346Z,19.27
2023-03-04T02:09:24.414Z,19.50
2023-03-04T02:11:53.657Z,14.15
2023-03-04T02:14:23.000Z,23.80
2023-03-04T02:16:53.137Z,17.75
2023-03-04T02:21:57.827Z,15.43
2023-03-04T02:24:32.160Z,13.15
2023-03-04T02:27:01.817Z,17.42
2023-03-04T02:29:30.144Z,17.67
2023-03-04T02:31:58.341Z,16.70
2023-03-04T02:34:29.999Z,15.25
2023-03-04T02:36:59.010Z,19.27
2023-03-04T02:39:33.402Z,15.40
2023-03-04T02:42:03.934Z,21.98
2023-03-04T02:44:35.974Z,15.80
2023-03-04T02:47:05.040Z,19.00
2023-03-04T02:49:34.751Z,10.38
2023-03-04T02:52:05.262Z,13.10
2023-03-04T02:54:33.747Z,12.68
2023-03-04T02:57:06.268Z,14.60
2023-03-04T02:59:37.153Z,17.80
2023-03-04T03:02:06.515Z,13.60
2023-03-04T03:04:37.275Z,12.35
2023-03-04T03:07:09.146Z,15.63
2023-03-04T03:09:37.834Z,13.73
2023-03-04T03:12:07.424Z,13.20
2023-03-04T03:14:35.271Z,9.98
2023-03-04T03:17:05.186Z,15.75
2023-03-04T03:19:32.997Z,15.95
2023-03-04T03:22:04.041Z,16.92
2023-03-04T03:24:31.865Z,12.65
2023-03-04T03:26:59.680Z,12.85
2023-03-04T03:29:28.876Z,14.43
2023-03-04T03:31:57.140Z,12.68
2023-03-04T03:34:25.208Z,10.20
2023-03-04T03:36:53.172Z,18.98
2023-03-04T03:39:21.269Z,11.45
2023-03-04T03:41:49.562Z,12.82
2023-03-04T03:44:17.460Z,12.63
2023-03-04T03:46:46.818Z,15.18
2023-03-04T03:49:14.810Z,15.80
2023-03-04T03:51:42.649Z,11.13
2023-03-04T03:54:11.144Z,9.93
2023-03-04T03:56:39.023Z,10.63
2023-03-04T03:59:07.021Z,7.93
2023-03-04T04:01:35.118Z,15.00
2023-03-04T04:04:04.360Z,10.82
2023-03-04T04:06:32.216Z,10.23
2023-03-04T04:09:00.043Z,21.52
2023-03-04T04:11:28.048Z,22.65
2023-03-04T04:13:55.903Z,18.30
2023-03-04T04:16:23.830Z,9.65
2023-03-04T04:18:51.722Z,13.50
2023-03-04T04:21:20.888Z,9.50
2023-03-04T04:23:48.713Z,12.18
2023-03-04T04:26:16.802Z,12.50
2023-03-04T04:28:44.661Z,16.35
2023-03-04T04:31:12.735Z,14.60
2023-03-04T04:33:40.571Z,14.38
2023-03-04T04:36:11.044Z,17.75
2023-03-04T04:38:40.290Z,12.70
2023-03-04T04:41:19.149Z,10.18
2023-03-04T04:43:46.925Z,12.00
2023-03-04T04:46:15.356Z,11.95
2023-03-04T04:48:43.623Z,12.75
2023-03-04T04:51:11.851Z,9.80
2023-03-04T04:53:41.248Z,11.70
2023-03-04T04:56:14.041Z,14.63
2023-03-04T04:58:42.820Z,11.80
2023-03-04T05:01:11.670Z,7.90
2023-03-04T05:03:40.176Z,10.48
2023-03-04T05:06:10.770Z,14.60
2023-03-04T05:08:38.599Z,12.50
2023-03-04T05:11:08.277Z,11.15
2023-03-04T05:13:36.462Z,11.98
2023-03-04T05:16:04.411Z,16.25
2023-03-04T05:18:32.817Z,9.20
2023-03-04T05:21:02.470Z,9.60
2023-03-04T05:23:33.436Z,9.00
2023-03-04T05:26:01.300Z,10.88
2023-03-04T05:28:30.798Z,18.05
2023-03-04T05:30:58.869Z,7.47
2023-03-04T05:33:26.715Z,9.82
2023-03-04T05:35:55.133Z,17.77
2023-03-04T05:38:23.785Z,7.22
2023-03-04T05:40:56.271Z,8.35
2023-03-04T05:43:24.215Z,12.45
2023-03-04T05:45:53.326Z,9.88
2023-03-04T05:48:21.492Z,10.30
2023-03-04T05:50:54.702Z,11.65
2023-03-04T05:53:22.872Z,6.65
2023-03-04T05:55:50.943Z,11.35
2023-03-04T05:58:19.904Z,16.05
2023-03-04T06:00:48.629Z,12.82
2023-03-04T06:03:20.064Z,12.18
2023-03-04T06:05:48.386Z,12.52
2023-03-04T06:08:16.545Z,8.52
2023-03-04T06:10:44.399Z,9.32
2023-03-04T06:13:13.007Z,7.80
2023-03-04T06:15:41.581Z,12.50
2023-03-04T06:18:09.549Z,15.05
2023-03-04T06:20:38.879Z,10.98
2023-03-04T06:23:06.967Z,9.57
2023-03-04T06:25:34.979Z,10.93
2023-03-04T06:28:02.863Z,7.80
2023-03-04T06:30:30.756Z,8.43
2023-03-04T06:32:58.602Z,14.02
2023-03-04T06:35:26.430Z,12.63
2023-03-04T06:37:55.761Z,6.03
2023-03-04T06:40:23.682Z,11.40
2023-03-04T06:42:51.446Z,8.13
2023-03-04T06:45:19.287Z,9.75
2023-03-04T06:47:47.215Z,8.65
2023-03-04T06:50:15.052Z,6.90
2023-03-04T06:52:42.976Z,8.27
2023-03-04T06:55:13.005Z,12.98
2023-03-04T06:57:40.967Z,11.45
2023-03-04T07:00:09.860Z,10.77
2023-03-04T07:02:37.878Z,10.27
2023-03-04T07:05:06.545Z,16.85
2023-03-04T07:07:34.413Z,9.95
2023-03-04T07:10:02.254Z,7.32
2023-03-04T07:12:31.544Z,10.40
2023-03-04T07:14:59.457Z,17.45
2023-03-04T07:17:27.233Z,11.82
2023-03-04T07:19:55.040Z,14.40
2023-03-04T07:22:22.804Z,10.52
2023-03-04T07:24:50.687Z,14.15
2023-03-04T07:27:18.601Z,14.20
2023-03-04T07:29:47.837Z,10.90
2023-03-04T07:32:15.943Z,8.07
2023-03-04T07:34:43.876Z,12.18
2023-03-04T07:37:11.846Z,12.43
2023-03-04T07:39:39.646Z,11.43
2023-03-04T07:42:07.607Z,10.82
2023-03-04T07:44:40.666Z,12.50
2023-03-04T07:47:09.802Z,9.55
2023-03-04T07:49:37.835Z,9.50
2023-03-04T07:52:06.115Z,10.43
2023-03-04T07:54:34.253Z,11.38
2023-03-04T07:57:02.196Z,10.93
2023-03-04T07:59:29.980Z,11.90
2023-03-04T08:01:57.853Z,11.30
2023-03-04T08:04:27.299Z,7.45
2023-03-04T08:06:55.243Z,9.15
2023-03-04T08:09:23.017Z,8.95
2023-03-04T08:11:50.904Z,6.93
2023-03-04T08:14:18.717Z,12.52
2023-03-04T08:16:46.676Z,15.30
2023-03-04T08:19:14.735Z,9.63
2023-03-04T08:21:43.907Z,7.18
2023-03-04T08:24:12.817Z,13.55
2023-03-04T08:26:42.891Z,11.35
2023-03-04T08:29:13.560Z,9.40
2023-03-04T08:31:41.659Z,7.70
2023-03-04T08:34:11.479Z,9.95
2023-03-04T08:36:39.342Z,9.05
2023-03-04T08:39:08.647Z,12.32
2023-03-04T08:41:36.887Z,6.25
2023-03-04T08:44:05.426Z,11.68
2023-03-04T08:46:33.356Z,9.90
2023-03-04T08:49:01.734Z,8.02
2023-03-04T08:51:29.649Z,8.32
2023-03-04T08:53:57.620Z,5.60
2023-03-04T08:56:26.889Z,11.55
2023-03-04T08:58:54.891Z,10.40
2023-03-04T09:01:22.852Z,9.93
2023-03-04T09:03:50.897Z,7.88
2023-03-04T09:06:19.427Z,10.35
2023-03-04T09:08:47.720Z,7.97
2023-03-04T09:11:15.798Z,8.38
2023-03-04T09:13:45.241Z,9.30
2023-03-04T09:16:15.147Z,8.23
2023-03-04T09:18:44.307Z,6.80
2023-03-04T09:21:12.361Z,8.43
2023-03-04T09:23:40.457Z,10.50
2023-03-04T09:26:21.909Z,6.70
2023-03-04T09:28:53.254Z,8.35
2023-03-04T09:31:21.636Z,9.40
2023-03-04T09:33:49.650Z,7.10
2023-03-04T09:36:17.824Z,11.27
2023-03-04T09:38:46.019Z,9.75
2023-03-04T09:41:17.517Z,10.90
2023-03-04T09:43:46.282Z,7.15
2023-03-04T09:46:18.565Z,7.65
2023-03-04T09:48:49.422Z,5.85
2023-03-04T09:51:23.377Z,7.35
2023-03-04T09:54:07.199Z,9.38
2023-03-04T09:56:37.753Z,8.63
2023-03-04T09:59:16.373Z,6.65
2023-03-04T10:01:50.637Z,13.05
2023-03-04T10:04:27.787Z,6.72
2023-03-04T10:06:56.906Z,8.30
2023-03-04T10:09:29.568Z,8.93
2023-03-04T10:12:04.053Z,11.52
2023-03-04T10:14:36.593Z,12.15
2023-03-04T10:17:13.030Z,7.65
2023-03-04T10:20:00.163Z,5.90
2023-03-04T10:22:36.101Z,4.15
2023-03-04T10:25:17.493Z,4.82
2023-03-04T10:27:51.132Z,5.35
2023-03-04T10:30:30.344Z,4.90
2023-03-04T10:32:59.584Z,5.45
2023-03-04T10:35:37.676Z,5.65
2023-03-04T10:38:05.891Z,5.43
2023-03-04T10:40:38.910Z,4.68
2023-03-04T10:43:08.196Z,4.43
2023-03-04T10:45:40.347Z,4.38
2023-03-04T10:48:20.264Z,2.40
2023-03-04T10:50:48.573Z,4.28
2023-03-04T10:53:42.145Z,5.80
2023-03-04T10:56:38.393Z,4.78
2023-03-04T10:59:30.728Z,4.03
2023-03-04T11:01:59.180Z,5.60
2023-03-04T11:04:34.420Z,3.25
2023-03-04T11:07:02.189Z,2.65
2023-03-04T11:09:32.344Z,3.20
2023-03-04T11:12:02.899Z,3.25
2023-03-04T11:14:36.452Z,5.25
2023-03-04T11:17:18.790Z,2.60
2023-03-04T11:19:52.767Z,1.65
2023-03-04T11:22:24.510Z,2.33
2023-03-04T11:24:58.657Z,4.30
2023-03-04T11:27:38.837Z,4.53
2023-03-04T11:30:22.996Z,6.22
2023-03-04T11:32:54.257Z,8.05
2023-03-04T11:35:28.467Z,4.63
2023-03-04T11:38:05.240Z,5.55
2023-03-04T11:40:40.355Z,5.18
2023-03-04T11:43:15.142Z,7.13
2023-03-04T11:46:08.855Z,5.22
2023-03-04T11:48:49.446Z,5.72
2023-03-04T11:51:28.904Z,9.68
2023-03-04T11:54:17.140Z,6.93
2023-03-04T11:56:49.524Z,7.38
2023-03-04T11:59:39.482Z,6.15
2023-03-04T12:02:17.330Z,6.75
2023-03-04T12:05:14.461Z,8.77
2023-03-04T12:08:17.428Z,6.60
2023-03-04T12:10:51.657Z,5.65
2023-03-04T12:14:00.673Z,7.03
2023-03-04T12:17:11.450Z,6.93
2023-03-04T12:19:51.973Z,5.43
2023-03-04T12:22:35.295Z,6.30
2023-03-04T12:25:51.856Z,6.43
2023-03-04T12:28:28.811Z,5.82
2023-03-04T12:31:10.214Z,5.20
2023-03-04T12:33:45.996Z,5.05
2023-03-04T12:36:26.152Z,7.07
2023-03-04T12:39:01.160Z,5.63
2023-03-04T12:41:49.582Z,7.82
2023-03-04T12:44:19.509Z,7.03
2023-03-04T12:47:11.662Z,5.93
2023-03-04T12:49:57.032Z,5.10
2023-03-04T12:52:35.877Z,6.78
2023-03-04T12:55:05.731Z,6.43
2023-03-04T12:57:36.272Z,5.80
2023-03-04T13:00:18.356Z,3.75
2023-03-04T13:02:58.400Z,5.78
2023-03-04T13:05:36.942Z,4.68
2023-03-04T13:08:14.767Z,3.85
2023-03-04T13:10:42.845Z,6.18
2023-03-04T13:13:37.572Z,6.10
2023-03-04T13:16:07.213Z,4.18
2023-03-04T13:18:36.685Z,3.53
2023-03-04T13:21:21.620Z,4.03
2023-03-04T13:23:49.669Z,2.92
2023-03-04T13:26:32.435Z,3.47
2023-03-04T13:29:37.043Z,4.63
2023-03-04T13:32:10.828Z,6.53
2023-03-04T13:34:59.781Z,5.70
2023-03-04T13:37:32.341Z,5.70
2023-03-04T13:40:33.104Z,5.22
2023-03-04T13:43:26.396Z,6.43
2023-03-04T13:45:56.411Z,4.28
2023-03-04T13:48:32.617Z,4.85
2023-03-04T13:51:00.889Z,3.35
2023-03-04T13:53:38.962Z,7.78
2023-03-04T13:56:40.011Z,4.75
2023-03-04T13:59:29.933Z,5.53
2023-03-04T14:02:11.437Z,5.05
2023-03-04T14:04:51.656Z,8.77
2023-03-04T14:07:25.000Z,7.07
2023-03-04T14:10:01.208Z,7.03
2023-03-04T14:12:31.520Z,6.60
2023-03-04T14:17:31.811Z,6.57
2023-03-04T14:20:00.967Z,7.78
2023-03-04T14:22:31.370Z,6.28
2023-03-04T14:25:04.480Z,6.43
2023-03-04T14:27:35.853Z,10.63
2023-03-04T14:30:05.980Z,8.43
2023-03-04T14:32:35.587Z,7.32
2023-03-04T14:35:07.600Z,7.95
2023-03-04T14:37:43.505Z,7.18
2023-03-04T14:40:20.983Z,8.00
2023-03-04T14:42:51.674Z,6.80
2023-03-04T14:45:19.916Z,8.25
2023-03-04T14:47:49.658Z,7.97
2023-03-04T14:50:20.115Z,6.72
2023-03-04T14:52:51.697Z,9.90
2023-03-04T14:55:25.273Z,6.40
2023-03-04T14:57:58.493Z,6.82
2023-03-04T15:00:31.218Z,12.65
2023-03-04T15:03:01.941Z,9.68
2023-03-04T15:05:31.513Z,9.00
2023-03-04T15:08:01.998Z,8.20
2023-03-04T15:10:33.290Z,6.50
2023-03-04T15:13:03.844Z,10.98
2023-03-04T15:15:35.618Z,12.25
2023-03-04T15:18:16.416Z,6.63
2023-03-04T15:20:53.203Z,12.57
2023-03-04T15:23:21.140Z,6.30
2023-03-04T15:25:53.865Z,7.93
2023-03-04T15:28:22.183Z,8.75
2023-03-04T15:30:50.137Z,7.97
2023-03-04T15:33:21.257Z,11.60
2023-03-04T15:35:55.471Z,5.70
2023-03-04T15:38:23.997Z,8.95
2023-03-04T15:40:54.463Z,12.25
2023-03-04T15:43:24.523Z,8.48
2023-03-04T15:45:53.989Z,10.82
2023-03-04T15:48:23.400Z,9.85
2023-03-04T15:50:56.387Z,9.77
2023-03-04T15:53:32.946Z,5.60
2023-03-04T15:56:01.797Z,8.70
2023-03-04T15:58:30.096Z,7.22
2023-03-04T16:00:58.387Z,8.20
2023-03-04T16:03:27.701Z,9.20
2023-03-04T16:05:55.588Z,9.55
2023-03-04T16:08:25.556Z,7.93
2023-03-04T16:10:54.549Z,13.60
2023-03-04T16:13:23.831Z,11.75
2023-03-04T16:15:51.733Z,6.33
2023-03-04T16:18:19.978Z,11.30
2023-03-04T16:20:50.675Z,8.85
2023-03-04T16:23:21.437Z,10.40
2023-03-04T16:25:51.716Z,11.02
2023-03-04T16:30:48.105Z,10.02
2023-03-04T16:33:16.363Z,6.10
2023-03-04T16:35:46.590Z,13.25
2023-03-04T16:40:49.611Z,9.07
2023-03-04T16:43:17.450Z,8.52
2023-03-04T16:45:45.946Z,9.13
2023-03-04T16:48:13.801Z,14.35
2023-03-04T16:50:42.304Z,12.13
2023-03-04T16:53:23.505Z,10.63
2023-03-04T16:55:51.706Z,10.93
2023-03-04T16:58:19.624Z,11.20
2023-03-04T17:00:47.630Z,9.27
2023-03-04T17:03:15.494Z,14.82
2023-03-04T17:05:44.287Z,8.32
2023-03-04T17:08:12.273Z,11.25
2023-03-04T17:10:41.720Z,13.57
2023-03-04T17:13:09.877Z,13.60
2023-03-04T17:15:37.914Z,10.88
2023-03-04T17:18:05.956Z,10.45
2023-03-04T17:20:33.802Z,9.50
2023-03-04T17:23:01.870Z,11.82
2023-03-04T17:25:29.862Z,11.18
2023-03-04T17:27:59.095Z,13.45
2023-03-04T17:30:27.128Z,13.77
2023-03-04T17:32:55.579Z,16.40
2023-03-04T17:35:25.825Z,8.55
2023-03-04T17:37:54.066Z,11.82
2023-03-04T17:40:22.220Z,13.05
2023-03-04T17:42:50.071Z,13.30
2023-03-04T17:45:19.569Z,12.13
2023-03-04T17:47:47.522Z,15.27
2023-03-04T17:50:15.591Z,10.20
2023-03-04T17:52:43.717Z,7.43
2023-03-04T17:55:12.124Z,13.30
2023-03-04T17:57:40.013Z,9.65
2023-03-04T18:00:09.207Z,7.03
2023-03-04T18:02:38.610Z,13.15
2023-03-04T18:05:07.581Z,9.90
2023-03-04T18:07:35.464Z,10.65
2023-03-04T18:10:03.661Z,9.07
2023-03-04T18:12:31.584Z,10.05
2023-03-04T18:14:59.390Z,9.30
2023-03-04T18:17:27.667Z,12.98
2023-03-04T18:19:56.850Z,10.43
2023-03-04T18:22:25.149Z,10.73
2023-03-04T18:24:52.994Z,10.93
2023-03-04T18:27:20.906Z,13.50
2023-03-04T18:29:48.776Z,11.77
2023-03-04T18:32:16.814Z,8.98
2023-03-04T18:34:44.811Z,9.20
2023-03-04T18:37:14.034Z,12.20
2023-03-04T18:39:41.981Z,12.40
2023-03-04T18:42:09.863Z,6.60
2023-03-04T18:44:37.712Z,10.77
2023-03-04T18:47:06.884Z,16.20
2023-03-04T18:49:35.265Z,16.25
2023-03-04T18:52:03.218Z,12.18
2023-03-04T18:54:32.421Z,9.90
2023-03-04T18:57:03.393Z,14.05
2023-03-04T18:59:36.766Z,11.77
2023-03-04T19:02:08.820Z,9.63
2023-03-04T19:04:37.007Z,17.55
2023-03-04T19:07:05.168Z,12.10
2023-03-04T19:09:34.673Z,17.73
2023-03-04T19:12:03.000Z,15.32
2023-03-04T19:14:30.861Z,9.10
2023-03-04T19:16:58.860Z,10.88
2023-03-04T19:19:26.881Z,15.52
2023-03-04T19:21:54.862Z,13.57
2023-03-04T19:24:22.636Z,8.70
2023-03-04T19:26:52.110Z,10.43
2023-03-04T19:29:20.249Z,14.27
2023-03-04T19:31:48.169Z,8.30
2023-03-04T19:34:16.825Z,10.27
2023-03-04T19:36:44.702Z,7.38
2023-03-04T19:39:14.186Z,7.95
2023-03-04T19:41:42.300Z,16.92
2023-03-04T19:44:11.572Z,9.63
2023-03-04T19:46:39.406Z,8.88
2023-03-04T19:49:07.421Z,12.50
2023-03-04T19:51:35.247Z,11.60
2023-03-04T19:54:03.268Z,11.52
2023-03-04T19:56:31.115Z,5.93
2023-03-04T19:58:59.498Z,11.10
2023-03-04T20:01:30.758Z,14.55
2023-03-04T20:04:00.736Z,14.50
2023-03-04T20:06:29.443Z,12.07
2023-03-04T20:08:59.719Z,12.27
2023-03-04T20:13:58.288Z,15.18
2023-03-04T20:16:26.724Z,7.53
2023-03-04T20:18:57.941Z,8.02
2023-03-04T20:21:25.968Z,10.52
2023-03-04T20:23:53.824Z,12.32
2023-03-04T20:26:21.719Z,9.15
2023-03-04T20:28:52.839Z,9.65
2023-03-04T20:31:23.078Z,5.85
2023-03-04T20:36:22.208Z,8.57
2023-03-04T20:39:01.551Z,5.95
2023-03-04T20:41:30.118Z,8.60
2023-03-04T20:43:58.357Z,10.63
2023-03-04T20:46:29.151Z,8.02
2023-03-04T20:48:59.156Z,6.70
2023-03-04T20:51:29.315Z,6.28
2023-03-04T20:53:57.349Z,9.18
2023-03-04T20:56:25.740Z,7.85
2023-03-04T20:58:55.194Z,13.73
2023-03-04T21:01:24.042Z,6.55
2023-03-04T21:03:52.091Z,9.32
2023-03-04T21:06:20.483Z,8.55
2023-03-04T21:08:49.776Z,9.65
2023-03-04T21:11:18.371Z,6.80
2023-03-04T21:13:46.221Z,8.85
2023-03-04T21:16:16.821Z,8.20
2023-03-04T21:18:45.246Z,6.55
2023-03-04T21:21:15.442Z,9.57
2023-03-04T21:26:12.462Z,10.35
2023-03-04T21:28:41.488Z,7.50
2023-03-04T21:31:15.515Z,7.80
2023-03-04T21:33:43.576Z,7.43
2023-03-04T21:36:13.751Z,5.50
2023-03-04T21:41:14.275Z,5.72
2023-03-04T21:43:42.704Z,4.50
2023-03-04T21:46:11.430Z,4.57
2023-03-04T21:48:39.426Z,6.35
2023-03-04T21:51:09.385Z,4.68
2023-03-04T21:53:37.399Z,9.00
2023-03-04T21:56:05.917Z,2.63
2023-03-04T21:58:37.068Z,3.38
2023-03-04T22:01:10.437Z,5.20
2023-03-04T22:03:38.491Z,3.63
2023-03-04T22:06:07.909Z,2.13
2023-03-04T22:08:36.587Z,3.45
2023-03-04T22:11:05.701Z,4.57
2023-03-04T22:13:35.054Z,5.22
2023-03-04T22:16:03.114Z,4.00
2023-03-04T22:18:31.893Z,5.00
2023-03-04T22:21:05.083Z,6.47
2023-03-04T22:23:33.887Z,5.57
2023-03-04T22:26:04.077Z,4.22
2023-03-04T22:31:01.970Z,8.35
2023-03-04T22:35:57.739Z,11.88
2023-03-04T22:38:25.624Z,11.52
2023-03-04T22:40:53.833Z,8.57
2023-03-04T22:43:22.025Z,7.75
2023-03-04T22:45:50.096Z,8.45
2023-03-04T22:48:19.813Z,9.68
2023-03-04T22:50:47.647Z,6.05
2023-03-04T22:53:15.572Z,19.00
2023-03-04T22:55:43.449Z,10.10
2023-03-04T22:58:11.329Z,11.95
2023-03-04T23:00:40.021Z,10.85
2023-03-04T23:03:08.575Z,7.63
2023-03-04T23:05:38.082Z,9.45
2023-03-04T23:08:06.456Z,10.13
2023-03-04T23:10:34.466Z,9.63
2023-03-04T23:13:02.575Z,6.88
2023-03-04T23:15:30.388Z,8.35
2023-03-04T23:17:58.352Z,9.60
2023-03-04T23:20:26.451Z,9.32
2023-03-04T23:22:56.016Z,14.77
2023-03-04T23:25:24.924Z,9.80
2023-03-04T23:27:52.780Z,11.82
2023-03-04T23:30:20.680Z,11.20
2023-03-04T23:32:48.584Z,10.68
2023-03-04T23:35:16.507Z,11.77
2023-03-04T23:37:44.627Z,10.20
2023-03-04T23:40:14.752Z,12.50
2023-03-04T23:42:42.579Z,11.32
2023-03-04T23:45:11.529Z,15.02
2023-03-04T23:47:39.387Z,9.30
2023-03-04T23:50:08.926Z,11.30
2023-03-04T23:52:36.825Z,13.00
2023-03-04T23:55:05.553Z,10.13
2023-03-04T23:57:34.714Z,7.78
